Smit Orleans — CFN5087 — position and weather

sailwx.info

Track history (hours):
 
Tides and Currents Weather Stations Pressure Air Temp Water Temp Dewpoint Dewpoint Depression Visibility Wind Speed Wind Dir Waves Ship Positions

Smit Orleans

Last reported at 2015-May-25 19:34 UTC. Time now 2015-May-25 19:42 UTC.
Position N 49°17' W 123°04'.

Length 29 m; draft 5.1 m.

Type: . MMSI: 316012721.

Date/timePositionNaut miles runAvg speedWind from/ knotsBaromVisibWave heightAir tempDewpointWater temp
2015-May-25 19:34N 49°17' W 123°04'0 0.0
2015-May-25 18:34N 49°17' W 123°04'0 0.0
2015-May-25 17:34N 49°17' W 123°04'0 0.0
2015-May-25 16:34N 49°17' W 123°04'0 0.0
2015-May-25 15:33N 49°17' W 123°04'0 0.0
2015-May-25 14:34N 49°17' W 123°04'0 0.0
2015-May-25 13:34N 49°17' W 123°04'1 1.2
2015-May-25 12:34N 49°18' W 123°05'1 0.6
2015-May-25 11:34N 49°17' W 123°06'1 1.4
2015-May-25 10:33N 49°17' W 123°04'0 0.0
2015-May-25 09:34N 49°17' W 123°04'0 0.0
2015-May-25 08:34N 49°17' W 123°04'0 0.0
2015-May-25 07:33N 49°17' W 123°04'0 0.0
2015-May-25 06:34N 49°17' W 123°04'0 0.0
2015-May-25 05:34N 49°17' W 123°04'0 0.0
2015-May-25 04:34N 49°17' W 123°04'0 0.0
2015-May-25 03:34N 49°17' W 123°04'0 0.0
2015-May-25 02:34N 49°17' W 123°04'0 0.0
2015-May-25 01:34N 49°17' W 123°04'0 0.0
2015-May-25 00:34N 49°17' W 123°04'0 0.0
2015-May-24 23:34N 49°17' W 123°04'1 0.7
2015-May-24 22:34N 49°18' W 123°04'0 0.2
2015-May-24 21:34N 49°18' W 123°04'1 1.0
2015-May-24 20:33N 49°18' W 123°05'1 1.2
2015-May-24 19:34N 49°18' W 123°03'3 2.6
2015-May-24 18:34N 49°18' W 123°07'0 0.0
2015-May-24 17:33N 49°18' W 123°07'2 2.1
2015-May-24 16:34N 49°17' W 123°04'1 0.2
2015-May-24 12:23N 49°18' W 123°03'2 0.7
2015-May-24 09:28N 49°18' W 123°06'4 1.3
2015-May-24 06:30N 49°18' W 123°00'1 0.9
2015-May-24 05:32N 49°18' W 123°02'1 1.4
2015-May-24 04:29N 49°17' W 123°04'0 0.0
2015-May-24 03:34N 49°17' W 123°04'0 0.0
2015-May-24 02:34N 49°17' W 123°04'0 0.0
2015-May-24 01:34N 49°17' W 123°04'0 0.0
2015-May-24 00:34N 49°17' W 123°04'1 0.8
2015-May-23 23:34N 49°18' W 123°04'1 0.8
2015-May-23 22:34N 49°17' W 123°04'1 0.7
2015-May-23 21:34N 49°18' W 123°04'1 0.7
2015-May-23 20:34N 49°18' W 123°05'2 1.5
2015-May-23 19:34N 49°19' W 123°07'0 0.1
2015-May-23 18:34N 49°19' W 123°07'2 1.7
2015-May-23 17:33N 49°18' W 123°05'1 1.0
2015-May-23 16:34N 49°18' W 123°03'1 0.9
2015-May-23 15:33N 49°18' W 123°04'0 0.5
2015-May-23 14:33N 49°17' W 123°05'1 0.7
2015-May-23 13:33N 49°17' W 123°06'1 1.3
2015-May-23 12:33N 49°17' W 123°04'1 1.0
2015-May-23 11:33N 49°18' W 123°02'1 1.0
2015-May-23 10:33N 49°17' W 123°04'0 0.0
2015-May-23 09:33N 49°17' W 123°04'0 0.0
2015-May-23 08:33N 49°17' W 123°04'1 1.5
2015-May-23 07:34N 49°17' W 123°06'1 0.6
2015-May-23 06:33N 49°18' W 123°07'1 0.9
2015-May-23 05:33N 49°19' W 123°07'2 2.4
2015-May-23 04:33N 49°19' W 123°11'5 5.0
2015-May-23 03:33N 49°17' W 123°04'0 0.0
2015-May-23 02:33N 49°17' W 123°04'0 0.0
2015-May-23 01:33N 49°17' W 123°04'0 0.0
2015-May-23 00:33N 49°17' W 123°04'2 2.0
2015-May-22 23:33N 49°18' W 123°06'0 0.3
2015-May-22 22:33N 49°18' W 123°07'2 2.3
2015-May-22 21:33N 49°17' W 123°04'1 1.3
2015-May-22 20:33N 49°18' W 123°06'8 7.8
2015-May-22 19:33N 49°16' W 123°17'1110.6
2015-May-22 18:33N 49°06' W 123°20'10 9.9
2015-May-22 17:33N 48°56' W 123°17'8 7.6
2015-May-22 16:32N 48°49' W 123°20'9 9.2
2015-May-22 15:33N 48°40' W 123°16'9 9.3
2015-May-22 14:33N 48°31' W 123°11'9 9.0
2015-May-22 13:33N 48°23' W 123°15'310.5
2015-May-22 13:18N 48°21' W 123°18'7 9.0
2015-May-22 12:32N 48°18' W 123°28'412.3
2015-May-22 12:12N 48°22' W 123°24'5 7.7
2015-May-22 11:33N 48°23' W 123°17'1110.9
2015-May-22 10:33N 48°34' W 123°13'1110.9
2015-May-22 09:33N 48°44' W 123°09'7 7.3
2015-May-22 08:33N 48°51' W 123°05'1211.6
2015-May-22 07:33N 48°59' W 123°18'1313.0
2015-May-22 06:33N 49°12' W 123°18'10 9.6
2015-May-22 05:33N 49°18' W 123°07'7 6.8
2015-May-22 04:33N 49°18' W 122°56'1 1.5
2015-May-22 03:33N 49°17' W 122°54'1 1.4
2015-May-22 02:33N 49°18' W 122°56'0 0.0
2015-May-22 01:33N 49°18' W 122°56'0 0.0
2015-May-22 00:33N 49°18' W 122°56'4 3.8
2015-May-21 23:33N 49°18' W 123°02'2 1.6
2015-May-21 22:34N 49°18' W 123°04'1 0.6
2015-May-21 21:33N 49°17' W 123°04'0 0.0
2015-May-21 20:33N 49°17' W 123°04'0 0.0
2015-May-21 19:33N 49°17' W 123°04'0 0.0
2015-May-21 18:33N 49°17' W 123°04'0 0.0
2015-May-21 17:33N 49°17' W 123°04'0 0.0
2015-May-21 16:33N 49°17' W 123°04'0 0.0
2015-May-21 15:33N 49°17' W 123°04'0 0.0
2015-May-21 14:33N 49°17' W 123°04'0 0.0
2015-May-21 13:33N 49°17' W 123°04'2 2.3
2015-May-21 12:33N 49°18' W 123°07'2 2.3
2015-May-21 11:33N 49°17' W 123°04'0 0.0
2015-May-21 10:33N 49°17' W 123°04'0 0.0
2015-May-21 09:33N 49°17' W 123°04'0 0.0
2015-May-21 08:33N 49°17' W 123°04'0 0.0
2015-May-21 08:00N 49°17' W 123°04'0 0.0
2015-May-21 07:33N 49°17' W 123°04'0 0.0
2015-May-21 06:33N 49°17' W 123°04'0 0.0
2015-May-21 05:33N 49°17' W 123°04'0 0.0
2015-May-21 04:33N 49°17' W 123°04'0 0.0
2015-May-21 03:33N 49°17' W 123°04'0 0.0
2015-May-21 02:33N 49°17' W 123°04'0 0.0
2015-May-21 01:33N 49°17' W 123°04'0 0.0
2015-May-21 00:33N 49°17' W 123°04'2 2.4
2015-May-20 23:33N 49°18' W 123°00'4 4.0
2015-May-20 22:33N 49°17' W 122°54'5 4.9
2015-May-20 21:33N 49°18' W 123°01'1 1.5
2015-May-20 20:33N 49°17' W 123°04'0 0.0
2015-May-20 19:33N 49°17' W 123°04'0 0.0
2015-May-20 18:33N 49°17' W 123°04'0 0.0
2015-May-20 17:33N 49°17' W 123°04'0 0.0
2015-May-20 16:33N 49°17' W 123°04'0 0.0
2015-May-20 15:33N 49°17' W 123°04'0 0.0
2015-May-20 14:33N 49°17' W 123°04'0 0.0
2015-May-20 13:33N 49°17' W 123°04'0 0.0
2015-May-20 12:33N 49°17' W 123°04'0 0.0
2015-May-20 11:33N 49°17' W 123°04'0 0.0
2015-May-20 10:33N 49°17' W 123°04'0 0.0
2015-May-20 09:33N 49°17' W 123°04'0 0.0
2015-May-20 08:33N 49°17' W 123°04'0 0.0
2015-May-20 07:33N 49°17' W 123°04'0 0.0
2015-May-20 06:33N 49°17' W 123°04'0 0.0
2015-May-20 05:33N 49°17' W 123°04'0 0.0
2015-May-20 04:33N 49°17' W 123°04'0 0.0
2015-May-20 03:33N 49°17' W 123°04'0 0.0
2015-May-20 02:33N 49°17' W 123°04'0 0.0
2015-May-20 01:33N 49°17' W 123°04'0 0.0
2015-May-20 00:33N 49°17' W 123°04'1 1.3
2015-May-19 23:33N 49°17' W 123°06'2 1.7
2015-May-19 22:33N 49°19' W 123°08'3 2.8
2015-May-19 21:33N 49°17' W 123°04'0 0.0
2015-May-19 20:33N 49°17' W 123°04'0 0.0
2015-May-19 19:34N 49°17' W 123°04'0 0.0
2015-May-19 18:33N 49°17' W 123°04'0 0.0
2015-May-19 17:33N 49°17' W 123°04'0 0.0
2015-May-19 16:33N 49°17' W 123°04'0 0.0
2015-May-19 15:33N 49°17' W 123°04'0 0.0
2015-May-19 14:33N 49°17' W 123°04'0 0.0
2015-May-19 13:33N 49°17' W 123°04'0 0.0
2015-May-19 12:33N 49°17' W 123°04'0 0.0
2015-May-19 11:33N 49°17' W 123°04'0 0.0
2015-May-19 10:33N 49°17' W 123°04'0 0.0
2015-May-19 09:33N 49°17' W 123°04'0 0.0
2015-May-19 08:33N 49°17' W 123°04'0 0.0
2015-May-19 07:33N 49°17' W 123°04'1 0.6
2015-May-19 06:34N 49°17' W 123°05'1 0.6
2015-May-19 05:33N 49°17' W 123°04'0 0.0
2015-May-19 04:33N 49°17' W 123°04'0 0.0
2015-May-19 03:33N 49°17' W 123°04'0 0.4
2015-May-19 02:33N 49°18' W 123°04'0 0.4
2015-May-19 01:33N 49°17' W 123°04'0 0.0
2015-May-19 00:33N 49°17' W 123°04'0 0.0
2015-May-18 23:33N 49°17' W 123°04'0 0.0
2015-May-18 22:33N 49°17' W 123°04'0 0.0
2015-May-18 21:33N 49°17' W 123°04'0 0.0
2015-May-18 20:33N 49°17' W 123°04'0 0.0
2015-May-18 19:33N 49°17' W 123°04'0 0.0
2015-May-18 18:32N 49°17' W 123°04'0 0.0
2015-May-18 17:32N 49°17' W 123°04'0 0.0
2015-May-18 16:33N 49°17' W 123°04'0 0.0
2015-May-18 15:33N 49°17' W 123°04'0 0.0
2015-May-18 14:31N 49°17' W 123°04'0 0.4
2015-May-18 13:30N 49°18' W 123°04'1 1.4
2015-May-18 12:33N 49°18' W 123°02'3 0.2
2015-May-17 22:18N 49°19' W 123°07'2 2.5
2015-May-17 21:20N 49°17' W 123°04'0 0.0
2015-May-17 20:25N 49°17' W 123°04'0 0.0
2015-May-17 19:04N 49°17' W 123°04'2 4.8
2015-May-17 18:33N 49°19' W 123°07'1 1.2
2015-May-17 17:31N 49°18' W 123°05'1 1.2
2015-May-17 16:33N 49°17' W 123°04'0 0.0
2015-May-17 15:33N 49°17' W 123°04'0 0.0
2015-May-17 14:33N 49°17' W 123°04'0 0.0
2015-May-17 13:33N 49°17' W 123°04'0 0.0
2015-May-17 12:33N 49°17' W 123°04'0 0.0
2015-May-17 11:33N 49°17' W 123°04'0 0.0
2015-May-17 10:33N 49°17' W 123°04'0 0.0
2015-May-17 09:33N 49°17' W 123°04'0 0.0
2015-May-17 08:33N 49°17' W 123°04'0 0.0
2015-May-17 07:33N 49°17' W 123°04'0 0.0
2015-May-17 06:33N 49°17' W 123°04'0 0.0
2015-May-17 05:33N 49°17' W 123°04'0 0.0
2015-May-17 04:33N 49°17' W 123°04'0 0.0
2015-May-17 03:33N 49°17' W 123°04'0 0.0
2015-May-17 02:33N 49°17' W 123°04'1 1.0
2015-May-17 01:33N 49°18' W 123°05'10 9.8
2015-May-17 00:33N 49°13' W 123°18'1312.5
2015-May-16 23:33N 49°01' W 123°18'1111.1
2015-May-16 22:32N 48°49' W 123°21'1312.9
2015-May-16 21:33N 48°37' W 123°13'913.5
2015-May-16 20:53N 48°29' W 123°10'514.6
2015-May-16 20:33N 48°24' W 123°12'1110.0
2015-May-16 19:29N 48°19' W 123°27'7 8.0
2015-May-16 18:37N 48°23' W 123°18'0 6.8
2015-May-16 18:33N 48°23' W 123°17'9 9.1
2015-May-16 17:34N 48°32' W 123°12'1110.2
2015-May-16 16:26N 48°43' W 123°13'1011.2
2015-May-16 15:33N 48°49' W 123°01'1212.4
2015-May-16 14:33N 48°57' W 123°15'1212.2
2015-May-16 13:33N 49°09' W 123°19'1110.9
2015-May-16 12:33N 49°19' W 123°12'6 6.4
2015-May-16 11:33N 49°18' W 123°02'3 2.6
2015-May-16 10:33N 49°18' W 122°58'0 0.1
2015-May-16 09:33N 49°18' W 122°58'4 3.8
2015-May-16 08:33N 49°17' W 123°04'0 0.0
2015-May-16 07:33N 49°17' W 123°04'0 0.0
2015-May-16 06:33N 49°17' W 123°04'0 0.0
2015-May-16 05:33N 49°17' W 123°04'0 0.0
2015-May-16 04:33N 49°17' W 123°04'0 0.0
2015-May-16 03:33N 49°17' W 123°04'0 0.0
2015-May-16 02:33N 49°17' W 123°04'0 0.3
2015-May-16 01:33N 49°18' W 123°04'0 0.3
2015-May-16 00:33N 49°17' W 123°04'0 0.0
2015-May-15 23:33N 49°17' W 123°04'0 0.0
2015-May-15 22:33N 49°17' W 123°04'0 0.0
2015-May-15 21:33N 49°17' W 123°04'0 0.0
2015-May-15 20:33N 49°17' W 123°04'  
Track history (hours):
 
Tides and Currents Weather Stations Pressure Air Temp Water Temp Dewpoint Dewpoint Depression Visibility Wind Speed Wind Dir Waves Ship Positions

Smit Orleans

Last reported at 2015-May-25 19:34 UTC. Time now 2015-May-25 19:42 UTC.
Position N 49°17' W 123°04'.

Length 29 m; draft 5.1 m.

Type: . MMSI: 316012721.

Date/timePositionNaut miles runAvg speedWind from/ knotsBaromVisibWave heightAir tempDewpointWater temp
2015-May-25 19:34N 49°17' W 123°04'0 0.0
2015-May-25 18:34N 49°17' W 123°04'0 0.0
2015-May-25 17:34N 49°17' W 123°04'0 0.0
2015-May-25 16:34N 49°17' W 123°04'0 0.0
2015-May-25 15:33N 49°17' W 123°04'0 0.0
2015-May-25 14:34N 49°17' W 123°04'0 0.0
2015-May-25 13:34N 49°17' W 123°04'1 1.2
2015-May-25 12:34N 49°18' W 123°05'1 0.6
2015-May-25 11:34N 49°17' W 123°06'1 1.4
2015-May-25 10:33N 49°17' W 123°04'0 0.0
2015-May-25 09:34N 49°17' W 123°04'0 0.0
2015-May-25 08:34N 49°17' W 123°04'0 0.0
2015-May-25 07:33N 49°17' W 123°04'0 0.0
2015-May-25 06:34N 49°17' W 123°04'0 0.0
2015-May-25 05:34N 49°17' W 123°04'0 0.0
2015-May-25 04:34N 49°17' W 123°04'0 0.0
2015-May-25 03:34N 49°17' W 123°04'0 0.0
2015-May-25 02:34N 49°17' W 123°04'0 0.0
2015-May-25 01:34N 49°17' W 123°04'0 0.0
2015-May-25 00:34N 49°17' W 123°04'0 0.0
2015-May-24 23:34N 49°17' W 123°04'1 0.7
2015-May-24 22:34N 49°18' W 123°04'0 0.2
2015-May-24 21:34N 49°18' W 123°04'1 1.0
2015-May-24 20:33N 49°18' W 123°05'1 1.2
2015-May-24 19:34N 49°18' W 123°03'3 2.6
2015-May-24 18:34N 49°18' W 123°07'0 0.0
2015-May-24 17:33N 49°18' W 123°07'2 2.1
2015-May-24 16:34N 49°17' W 123°04'1 0.2
2015-May-24 12:23N 49°18' W 123°03'2 0.7
2015-May-24 09:28N 49°18' W 123°06'4 1.3
2015-May-24 06:30N 49°18' W 123°00'1 0.9
2015-May-24 05:32N 49°18' W 123°02'1 1.4
2015-May-24 04:29N 49°17' W 123°04'0 0.0
2015-May-24 03:34N 49°17' W 123°04'0 0.0
2015-May-24 02:34N 49°17' W 123°04'0 0.0
2015-May-24 01:34N 49°17' W 123°04'0 0.0
2015-May-24 00:34N 49°17' W 123°04'1 0.8
2015-May-23 23:34N 49°18' W 123°04'1 0.8
2015-May-23 22:34N 49°17' W 123°04'1 0.7
2015-May-23 21:34N 49°18' W 123°04'1 0.7
2015-May-23 20:34N 49°18' W 123°05'2 1.5
2015-May-23 19:34N 49°19' W 123°07'0 0.1
2015-May-23 18:34N 49°19' W 123°07'2 1.7
2015-May-23 17:33N 49°18' W 123°05'1 1.0
2015-May-23 16:34N 49°18' W 123°03'1 0.9
2015-May-23 15:33N 49°18' W 123°04'0 0.5
2015-May-23 14:33N 49°17' W 123°05'1 0.7
2015-May-23 13:33N 49°17' W 123°06'1 1.3
2015-May-23 12:33N 49°17' W 123°04'1 1.0
2015-May-23 11:33N 49°18' W 123°02'1 1.0
2015-May-23 10:33N 49°17' W 123°04'0 0.0
2015-May-23 09:33N 49°17' W 123°04'0 0.0
2015-May-23 08:33N 49°17' W 123°04'1 1.5
2015-May-23 07:34N 49°17' W 123°06'1 0.6
2015-May-23 06:33N 49°18' W 123°07'1 0.9
2015-May-23 05:33N 49°19' W 123°07'2 2.4
2015-May-23 04:33N 49°19' W 123°11'5 5.0
2015-May-23 03:33N 49°17' W 123°04'0 0.0
2015-May-23 02:33N 49°17' W 123°04'0 0.0
2015-May-23 01:33N 49°17' W 123°04'0 0.0
2015-May-23 00:33N 49°17' W 123°04'2 2.0
2015-May-22 23:33N 49°18' W 123°06'0 0.3
2015-May-22 22:33N 49°18' W 123°07'2 2.3
2015-May-22 21:33N 49°17' W 123°04'1 1.3
2015-May-22 20:33N 49°18' W 123°06'8 7.8
2015-May-22 19:33N 49°16' W 123°17'1110.6
2015-May-22 18:33N 49°06' W 123°20'10 9.9
2015-May-22 17:33N 48°56' W 123°17'8 7.6
2015-May-22 16:32N 48°49' W 123°20'9 9.2
2015-May-22 15:33N 48°40' W 123°16'9 9.3
2015-May-22 14:33N 48°31' W 123°11'9 9.0
2015-May-22 13:33N 48°23' W 123°15'310.5
2015-May-22 13:18N 48°21' W 123°18'7 9.0
2015-May-22 12:32N 48°18' W 123°28'412.3
2015-May-22 12:12N 48°22' W 123°24'5 7.7
2015-May-22 11:33N 48°23' W 123°17'1110.9
2015-May-22 10:33N 48°34' W 123°13'1110.9
2015-May-22 09:33N 48°44' W 123°09'7 7.3
2015-May-22 08:33N 48°51' W 123°05'1211.6
2015-May-22 07:33N 48°59' W 123°18'1313.0
2015-May-22 06:33N 49°12' W 123°18'10 9.6
2015-May-22 05:33N 49°18' W 123°07'7 6.8
2015-May-22 04:33N 49°18' W 122°56'1 1.5
2015-May-22 03:33N 49°17' W 122°54'1 1.4
2015-May-22 02:33N 49°18' W 122°56'0 0.0
2015-May-22 01:33N 49°18' W 122°56'0 0.0
2015-May-22 00:33N 49°18' W 122°56'4 3.8
2015-May-21 23:33N 49°18' W 123°02'2 1.6
2015-May-21 22:34N 49°18' W 123°04'1 0.6
2015-May-21 21:33N 49°17' W 123°04'0 0.0
2015-May-21 20:33N 49°17' W 123°04'0 0.0
2015-May-21 19:33N 49°17' W 123°04'0 0.0
2015-May-21 18:33N 49°17' W 123°04'0 0.0
2015-May-21 17:33N 49°17' W 123°04'0 0.0
2015-May-21 16:33N 49°17' W 123°04'0 0.0
2015-May-21 15:33N 49°17' W 123°04'0 0.0
2015-May-21 14:33N 49°17' W 123°04'0 0.0
2015-May-21 13:33N 49°17' W 123°04'2 2.3
2015-May-21 12:33N 49°18' W 123°07'2 2.3
2015-May-21 11:33N 49°17' W 123°04'0 0.0
2015-May-21 10:33N 49°17' W 123°04'0 0.0
2015-May-21 09:33N 49°17' W 123°04'0 0.0
2015-May-21 08:33N 49°17' W 123°04'0 0.0
2015-May-21 08:00N 49°17' W 123°04'0 0.0
2015-May-21 07:33N 49°17' W 123°04'0 0.0
2015-May-21 06:33N 49°17' W 123°04'0 0.0
2015-May-21 05:33N 49°17' W 123°04'0 0.0
2015-May-21 04:33N 49°17' W 123°04'0 0.0
2015-May-21 03:33N 49°17' W 123°04'0 0.0
2015-May-21 02:33N 49°17' W 123°04'0 0.0
2015-May-21 01:33N 49°17' W 123°04'0 0.0
2015-May-21 00:33N 49°17' W 123°04'2 2.4
2015-May-20 23:33N 49°18' W 123°00'4 4.0
2015-May-20 22:33N 49°17' W 122°54'5 4.9
2015-May-20 21:33N 49°18' W 123°01'1 1.5
2015-May-20 20:33N 49°17' W 123°04'0 0.0
2015-May-20 19:33N 49°17' W 123°04'0 0.0
2015-May-20 18:33N 49°17' W 123°04'0 0.0
2015-May-20 17:33N 49°17' W 123°04'0 0.0
2015-May-20 16:33N 49°17' W 123°04'0 0.0
2015-May-20 15:33N 49°17' W 123°04'0 0.0
2015-May-20 14:33N 49°17' W 123°04'0 0.0
2015-May-20 13:33N 49°17' W 123°04'0 0.0
2015-May-20 12:33N 49°17' W 123°04'0 0.0
2015-May-20 11:33N 49°17' W 123°04'0 0.0
2015-May-20 10:33N 49°17' W 123°04'0 0.0
2015-May-20 09:33N 49°17' W 123°04'0 0.0
2015-May-20 08:33N 49°17' W 123°04'0 0.0
2015-May-20 07:33N 49°17' W 123°04'0 0.0
2015-May-20 06:33N 49°17' W 123°04'0 0.0
2015-May-20 05:33N 49°17' W 123°04'0 0.0
2015-May-20 04:33N 49°17' W 123°04'0 0.0
2015-May-20 03:33N 49°17' W 123°04'0 0.0
2015-May-20 02:33N 49°17' W 123°04'0 0.0
2015-May-20 01:33N 49°17' W 123°04'0 0.0
2015-May-20 00:33N 49°17' W 123°04'1 1.3
2015-May-19 23:33N 49°17' W 123°06'2 1.7
2015-May-19 22:33N 49°19' W 123°08'3 2.8
2015-May-19 21:33N 49°17' W 123°04'0 0.0
2015-May-19 20:33N 49°17' W 123°04'0 0.0
2015-May-19 19:34N 49°17' W 123°04'0 0.0
2015-May-19 18:33N 49°17' W 123°04'0 0.0
2015-May-19 17:33N 49°17' W 123°04'0 0.0
2015-May-19 16:33N 49°17' W 123°04'0 0.0
2015-May-19 15:33N 49°17' W 123°04'0 0.0
2015-May-19 14:33N 49°17' W 123°04'0 0.0
2015-May-19 13:33N 49°17' W 123°04'0 0.0
2015-May-19 12:33N 49°17' W 123°04'0 0.0
2015-May-19 11:33N 49°17' W 123°04'0 0.0
2015-May-19 10:33N 49°17' W 123°04'0 0.0
2015-May-19 09:33N 49°17' W 123°04'0 0.0
2015-May-19 08:33N 49°17' W 123°04'0 0.0
2015-May-19 07:33N 49°17' W 123°04'1 0.6
2015-May-19 06:34N 49°17' W 123°05'1 0.6
2015-May-19 05:33N 49°17' W 123°04'0 0.0
2015-May-19 04:33N 49°17' W 123°04'0 0.0
2015-May-19 03:33N 49°17' W 123°04'0 0.4
2015-May-19 02:33N 49°18' W 123°04'0 0.4
2015-May-19 01:33N 49°17' W 123°04'0 0.0
2015-May-19 00:33N 49°17' W 123°04'0 0.0
2015-May-18 23:33N 49°17' W 123°04'0 0.0
2015-May-18 22:33N 49°17' W 123°04'0 0.0
2015-May-18 21:33N 49°17' W 123°04'0 0.0
2015-May-18 20:33N 49°17' W 123°04'0 0.0
2015-May-18 19:33N 49°17' W 123°04'0 0.0
2015-May-18 18:32N 49°17' W 123°04'0 0.0
2015-May-18 17:32N 49°17' W 123°04'0 0.0
2015-May-18 16:33N 49°17' W 123°04'0 0.0
2015-May-18 15:33N 49°17' W 123°04'0 0.0
2015-May-18 14:31N 49°17' W 123°04'0 0.4
2015-May-18 13:30N 49°18' W 123°04'1 1.4
2015-May-18 12:33N 49°18' W 123°02'3 0.2
2015-May-17 22:18N 49°19' W 123°07'2 2.5
2015-May-17 21:20N 49°17' W 123°04'0 0.0
2015-May-17 20:25N 49°17' W 123°04'0 0.0
2015-May-17 19:04N 49°17' W 123°04'2 4.8
2015-May-17 18:33N 49°19' W 123°07'1 1.2
2015-May-17 17:31N 49°18' W 123°05'1 1.2
2015-May-17 16:33N 49°17' W 123°04'0 0.0
2015-May-17 15:33N 49°17' W 123°04'0 0.0
2015-May-17 14:33N 49°17' W 123°04'0 0.0
2015-May-17 13:33N 49°17' W 123°04'0 0.0
2015-May-17 12:33N 49°17' W 123°04'0 0.0
2015-May-17 11:33N 49°17' W 123°04'0 0.0
2015-May-17 10:33N 49°17' W 123°04'0 0.0
2015-May-17 09:33N 49°17' W 123°04'0 0.0
2015-May-17 08:33N 49°17' W 123°04'0 0.0
2015-May-17 07:33N 49°17' W 123°04'0 0.0
2015-May-17 06:33N 49°17' W 123°04'0 0.0
2015-May-17 05:33N 49°17' W 123°04'0 0.0
2015-May-17 04:33N 49°17' W 123°04'0 0.0
2015-May-17 03:33N 49°17' W 123°04'0 0.0
2015-May-17 02:33N 49°17' W 123°04'1 1.0
2015-May-17 01:33N 49°18' W 123°05'10 9.8
2015-May-17 00:33N 49°13' W 123°18'1312.5
2015-May-16 23:33N 49°01' W 123°18'1111.1
2015-May-16 22:32N 48°49' W 123°21'1312.9
2015-May-16 21:33N 48°37' W 123°13'913.5
2015-May-16 20:53N 48°29' W 123°10'514.6
2015-May-16 20:33N 48°24' W 123°12'1110.0
2015-May-16 19:29N 48°19' W 123°27'7 8.0
2015-May-16 18:37N 48°23' W 123°18'0 6.8
2015-May-16 18:33N 48°23' W 123°17'9 9.1
2015-May-16 17:34N 48°32' W 123°12'1110.2
2015-May-16 16:26N 48°43' W 123°13'1011.2
2015-May-16 15:33N 48°49' W 123°01'1212.4
2015-May-16 14:33N 48°57' W 123°15'1212.2
2015-May-16 13:33N 49°09' W 123°19'1110.9
2015-May-16 12:33N 49°19' W 123°12'6 6.4
2015-May-16 11:33N 49°18' W 123°02'3 2.6
2015-May-16 10:33N 49°18' W 122°58'0 0.1
2015-May-16 09:33N 49°18' W 122°58'4 3.8
2015-May-16 08:33N 49°17' W 123°04'0 0.0
2015-May-16 07:33N 49°17' W 123°04'0 0.0
2015-May-16 06:33N 49°17' W 123°04'0 0.0
2015-May-16 05:33N 49°17' W 123°04'0 0.0
2015-May-16 04:33N 49°17' W 123°04'0 0.0
2015-May-16 03:33N 49°17' W 123°04'0 0.0
2015-May-16 02:33N 49°17' W 123°04'0 0.3
2015-May-16 01:33N 49°18' W 123°04'0 0.3
2015-May-16 00:33N 49°17' W 123°04'0 0.0
2015-May-15 23:33N 49°17' W 123°04'0 0.0
2015-May-15 22:33N 49°17' W 123°04'0 0.0
2015-May-15 21:33N 49°17' W 123°04'0 0.0
2015-May-15 20:33N 49°17' W 123°04'  

Dump ship's entire track history